Parachute, CO (81635)

10:15 AM MDT on August 30, 2014 (GMT -0600)
Taughenbaugh Mesa | Change Station
CLOSE
Current Station
Personal Weather Station
Location: Rifle, CO
Elevation: 5650 ft
Nearby Weather Stations

Elev 5650 ft 39.50 °N, 107.85 °W | Updated 0 second ago

Clear
Clear
65.0 °F
Feels Like 65.0 °F
N
1.0
Wind Variable Wind from NE
Gusts 6.0 mph

Today
High -- | Low -- °F
--% Chance of Precip.
Yesterday
High -- | Low -- °F
Precip. -- in
6:38 AM 7:45 PM
Waxing Crescent, 23% visible
Pressure 30.00 in
Visibility 10.0 miles
Clouds Clear
Dew Point 48 °F
Humidity 55%
Rainfall 0.00 in
Snow Depth Not available.
UV 5 out of 12
Pollen 10.20 out of 12
Air Quality Not available.
Flu Activity Not available.
METAR KRIL 301553Z AUTO 14003KT 10SM CLR 17/08 A3016 RMK AO2 SLP158 T01720083

More Conditions Fewer Conditions

Pressure 30.00 in
Visibility 10.0 miles
Clouds Clear
Dew Point 48 °F
Humidity 55%
Rainfall 0.00 in
Snow Depth Not available.
UV 5 out of 12
Pollen 10.20 out of 12
Air Quality Not available.
Flu Activity Not available.
METAR KRIL 301553Z AUTO 14003KT 10SM CLR 17/08 A3016 RMK AO2 SLP158 T01720083

More Conditions Fewer Conditions

10-Day Weather Forecast

Almanac

Astronomy

Aug. 30, 2014 Rise Set
Actual Time 6:38 AM MDT 7:45 PM MDT
Civil Twilight 6:10 AM MDT 8:13 PM MDT
Nautical Twilight 5:37 AM MDT 8:46 PM MDT
Astronomical Twilight 5:03 AM MDT 9:20 PM MDT
Moon 11:27 AM MDT 10:23 PM MDT
Length of Visible Light 14h 02m
Length of Day
13h 07m
Tomorrow will be 2m 29s shorter.
Waxing Crescent, 23% of the Moon is Illuminated
Today
Waxing Crescent
Sep 2
First Quarter
Sep 8
Full
Sep 15
Last Quarter
Sep 24
New

Today's Extremes

State Highs State Lows

Community

WunderPhotos

Upload Photos

1,748,556 photos uploaded!

WunderBlogs® & News

Nearby

Snow Depth

Station Depth Elevation
Mesa Lakes 0 in 10000 ft
Park Reservoir 0 in 9960 ft
Overland Reservoir 0 in 9880 ft
Burro Mountain 1 in 9400 ft
Bison Lake 0 in 10880 ft

Earthquake Activity

City Distance Mag. Time & Date
No recent earthquake activity has been reported nearby.
Minimum magnitude displayed is 2.5.

Coastal Water Temperatures

Place Temperature
No Stations Reporting

Nearby Weather Stations